sensor_id;sensor_type;location;lat;lon;timestamp;P1;durP1;ratioP1;P2;durP2;ratioP2
34505;SDS011;20748;42.632;23.198;2023-07-31T00:02:21;5.57;;;3.45;;
34505;SDS011;20748;42.632;23.198;2023-07-31T00:04:54;6.28;;;3.28;;
34505;SDS011;20748;42.632;23.198;2023-07-31T00:07:26;7.93;;;3.50;;
34505;SDS011;20748;42.632;23.198;2023-07-31T00:09:59;4.82;;;2.78;;
34505;SDS011;20748;42.632;23.198;2023-07-31T00:12:31;6.15;;;3.72;;
34505;SDS011;20748;42.632;23.198;2023-07-31T00:15:04;4.85;;;3.28;;
34505;SDS011;20748;42.632;23.198;2023-07-31T00:17:37;6.15;;;3.33;;
34505;SDS011;20748;42.632;23.198;2023-07-31T00:20:11;5.13;;;3.45;;
34505;SDS011;20748;42.632;23.198;2023-07-31T00:22:43;4.95;;;3.25;;
34505;SDS011;20748;42.632;23.198;2023-07-31T00:25:15;5.18;;;2.63;;
34505;SDS011;20748;42.632;23.198;2023-07-31T00:27:48;3.90;;;2.70;;
34505;SDS011;20748;42.632;23.198;2023-07-31T00:30:20;4.05;;;2.72;;
34505;SDS011;20748;42.632;23.198;2023-07-31T00:32:53;4.93;;;2.97;;
34505;SDS011;20748;42.632;23.198;2023-07-31T00:35:27;8.25;;;4.90;;
34505;SDS011;20748;42.632;23.198;2023-07-31T00:37:59;6.70;;;3.30;;
34505;SDS011;20748;42.632;23.198;2023-07-31T00:40:34;4.57;;;3.22;;
34505;SDS011;20748;42.632;23.198;2023-07-31T00:43:07;6.03;;;3.20;;
34505;SDS011;20748;42.632;23.198;2023-07-31T00:45:40;5.28;;;3.17;;
34505;SDS011;20748;42.632;23.198;2023-07-31T00:48:13;5.55;;;3.50;;
34505;SDS011;20748;42.632;23.198;2023-07-31T00:50:46;5.75;;;3.55;;
34505;SDS011;20748;42.632;23.198;2023-07-31T00:53:19;5.32;;;3.35;;
34505;SDS011;20748;42.632;23.198;2023-07-31T00:55:52;5.07;;;3.25;;
34505;SDS011;20748;42.632;23.198;2023-07-31T00:58:25;5.13;;;3.33;;
34505;SDS011;20748;42.632;23.198;2023-07-31T01:00:57;7.15;;;3.47;;
34505;SDS011;20748;42.632;23.198;2023-07-31T01:03:30;6.38;;;3.60;;
34505;SDS011;20748;42.632;23.198;2023-07-31T01:06:06;9.48;;;4.72;;
34505;SDS011;20748;42.632;23.198;2023-07-31T01:08:48;5.65;;;3.42;;
34505;SDS011;20748;42.632;23.198;2023-07-31T01:11:27;7.05;;;4.20;;
34505;SDS011;20748;42.632;23.198;2023-07-31T01:14:02;7.82;;;4.95;;
34505;SDS011;20748;42.632;23.198;2023-07-31T01:16:34;7.70;;;5.50;;
34505;SDS011;20748;42.632;23.198;2023-07-31T01:19:07;9.98;;;5.57;;
34505;SDS011;20748;42.632;23.198;2023-07-31T01:21:48;9.13;;;5.80;;
34505;SDS011;20748;42.632;23.198;2023-07-31T01:24:42;10.80;;;6.03;;
34505;SDS011;20748;42.632;23.198;2023-07-31T01:27:28;9.85;;;6.03;;
34505;SDS011;20748;42.632;23.198;2023-07-31T01:30:08;9.35;;;6.60;;
34505;SDS011;20748;42.632;23.198;2023-07-31T01:32:46;10.00;;;6.38;;
34505;SDS011;20748;42.632;23.198;2023-07-31T01:35:21;10.52;;;6.90;;
34505;SDS011;20748;42.632;23.198;2023-07-31T01:37:54;10.73;;;7.13;;
34505;SDS011;20748;42.632;23.198;2023-07-31T01:40:27;13.50;;;7.25;;
34505;SDS011;20748;42.632;23.198;2023-07-31T01:43:00;12.77;;;8.65;;
34505;SDS011;20748;42.632;23.198;2023-07-31T01:45:33;13.18;;;8.23;;
34505;SDS011;20748;42.632;23.198;2023-07-31T01:48:06;11.80;;;8.20;;
34505;SDS011;20748;42.632;23.198;2023-07-31T01:50:39;12.98;;;8.43;;
34505;SDS011;20748;42.632;23.198;2023-07-31T01:53:11;15.05;;;9.60;;
34505;SDS011;20748;42.632;23.198;2023-07-31T01:55:44;13.60;;;8.73;;
34505;SDS011;20748;42.632;23.198;2023-07-31T01:58:17;14.27;;;8.30;;
34505;SDS011;20748;42.632;23.198;2023-07-31T02:00:50;14.02;;;9.18;;
34505;SDS011;20748;42.632;23.198;2023-07-31T02:03:22;23.55;;;14.00;;
34505;SDS011;20748;42.632;23.198;2023-07-31T02:05:57;23.13;;;14.23;;
34505;SDS011;20748;42.632;23.198;2023-07-31T02:08:30;21.17;;;12.88;;
34505;SDS011;20748;42.632;23.198;2023-07-31T02:11:02;25.95;;;15.07;;
34505;SDS011;20748;42.632;23.198;2023-07-31T02:13:36;24.88;;;14.82;;
34505;SDS011;20748;42.632;23.198;2023-07-31T02:16:09;24.90;;;15.38;;
34505;SDS011;20748;42.632;23.198;2023-07-31T02:18:41;24.15;;;13.52;;
34505;SDS011;20748;42.632;23.198;2023-07-31T02:21:13;24.63;;;13.77;;
34505;SDS011;20748;42.632;23.198;2023-07-31T02:23:46;23.50;;;14.32;;
34505;SDS011;20748;42.632;23.198;2023-07-31T02:26:18;24.13;;;13.25;;
34505;SDS011;20748;42.632;23.198;2023-07-31T02:28:51;21.65;;;13.52;;
34505;SDS011;20748;42.632;23.198;2023-07-31T02:31:24;22.05;;;13.07;;
34505;SDS011;20748;42.632;23.198;2023-07-31T02:33:56;21.70;;;14.52;;
34505;SDS011;20748;42.632;23.198;2023-07-31T02:36:28;22.63;;;13.73;;
34505;SDS011;20748;42.632;23.198;2023-07-31T02:39:01;24.13;;;15.57;;
34505;SDS011;20748;42.632;23.198;2023-07-31T02:41:33;24.83;;;15.45;;
34505;SDS011;20748;42.632;23.198;2023-07-31T02:44:07;20.38;;;13.82;;
34505;SDS011;20748;42.632;23.198;2023-07-31T02:46:39;25.10;;;14.85;;
34505;SDS011;20748;42.632;23.198;2023-07-31T02:49:12;21.55;;;14.57;;
34505;SDS011;20748;42.632;23.198;2023-07-31T02:51:45;22.48;;;14.25;;
34505;SDS011;20748;42.632;23.198;2023-07-31T02:54:17;24.75;;;15.40;;
34505;SDS011;20748;42.632;23.198;2023-07-31T02:56:49;23.63;;;14.52;;
34505;SDS011;20748;42.632;23.198;2023-07-31T02:59:22;21.45;;;13.52;;
34505;SDS011;20748;42.632;23.198;2023-07-31T03:01:56;25.00;;;15.60;;
34505;SDS011;20748;42.632;23.198;2023-07-31T03:04:30;25.00;;;15.10;;
34505;SDS011;20748;42.632;23.198;2023-07-31T03:07:03;26.88;;;15.00;;
34505;SDS011;20748;42.632;23.198;2023-07-31T03:09:36;23.55;;;14.50;;
34505;SDS011;20748;42.632;23.198;2023-07-31T03:12:08;24.42;;;15.65;;
34505;SDS011;20748;42.632;23.198;2023-07-31T03:14:41;23.60;;;14.40;;
34505;SDS011;20748;42.632;23.198;2023-07-31T03:17:14;25.90;;;15.05;;
34505;SDS011;20748;42.632;23.198;2023-07-31T03:19:47;24.52;;;14.85;;
34505;SDS011;20748;42.632;23.198;2023-07-31T03:22:19;25.27;;;14.98;;
34505;SDS011;20748;42.632;23.198;2023-07-31T03:24:51;27.33;;;16.02;;
34505;SDS011;20748;42.632;23.198;2023-07-31T03:27:24;25.90;;;14.63;;
34505;SDS011;20748;42.632;23.198;2023-07-31T03:29:57;25.92;;;15.25;;
34505;SDS011;20748;42.632;23.198;2023-07-31T03:32:31;26.55;;;15.75;;
34505;SDS011;20748;42.632;23.198;2023-07-31T03:35:04;25.75;;;13.70;;
34505;SDS011;20748;42.632;23.198;2023-07-31T03:37:37;25.10;;;15.45;;
34505;SDS011;20748;42.632;23.198;2023-07-31T03:40:10;25.33;;;14.50;;
34505;SDS011;20748;42.632;23.198;2023-07-31T03:42:43;24.70;;;15.23;;
34505;SDS011;20748;42.632;23.198;2023-07-31T03:45:16;27.02;;;15.93;;
34505;SDS011;20748;42.632;23.198;2023-07-31T03:47:48;21.65;;;12.65;;
34505;SDS011;20748;42.632;23.198;2023-07-31T03:50:20;24.83;;;15.50;;
34505;SDS011;20748;42.632;23.198;2023-07-31T03:52:53;26.73;;;14.65;;
34505;SDS011;20748;42.632;23.198;2023-07-31T03:55:25;25.58;;;15.23;;
34505;SDS011;20748;42.632;23.198;2023-07-31T03:57:58;28.85;;;16.48;;
34505;SDS011;20748;42.632;23.198;2023-07-31T04:00:32;25.88;;;15.48;;
34505;SDS011;20748;42.632;23.198;2023-07-31T04:03:04;32.92;;;15.40;;
34505;SDS011;20748;42.632;23.198;2023-07-31T04:05:38;28.17;;;15.00;;
34505;SDS011;20748;42.632;23.198;2023-07-31T04:08:11;31.33;;;15.55;;
34505;SDS011;20748;42.632;23.198;2023-07-31T04:10:44;30.02;;;15.43;;
34505;SDS011;20748;42.632;23.198;2023-07-31T04:13:16;23.85;;;14.38;;
34505;SDS011;20748;42.632;23.198;2023-07-31T04:15:49;23.85;;;13.52;;
34505;SDS011;20748;42.632;23.198;2023-07-31T04:18:24;25.50;;;14.88;;
34505;SDS011;20748;42.632;23.198;2023-07-31T04:20:56;25.65;;;14.38;;
34505;SDS011;20748;42.632;23.198;2023-07-31T04:23:30;21.40;;;12.05;;
34505;SDS011;20748;42.632;23.198;2023-07-31T04:26:02;26.52;;;15.00;;
34505;SDS011;20748;42.632;23.198;2023-07-31T04:28:35;23.75;;;13.65;;
34505;SDS011;20748;42.632;23.198;2023-07-31T04:31:08;23.40;;;13.50;;
34505;SDS011;20748;42.632;23.198;2023-07-31T04:33:40;19.10;;;11.35;;
34505;SDS011;20748;42.632;23.198;2023-07-31T04:36:13;17.50;;;11.38;;
34505;SDS011;20748;42.632;23.198;2023-07-31T04:38:45;21.25;;;12.25;;
34505;SDS011;20748;42.632;23.198;2023-07-31T04:41:17;24.33;;;13.52;;
34505;SDS011;20748;42.632;23.198;2023-07-31T04:43:50;19.88;;;11.48;;
34505;SDS011;20748;42.632;23.198;2023-07-31T04:46:23;25.48;;;13.65;;
34505;SDS011;20748;42.632;23.198;2023-07-31T04:48:55;23.13;;;13.32;;
34505;SDS011;20748;42.632;23.198;2023-07-31T04:51:28;21.40;;;13.15;;
34505;SDS011;20748;42.632;23.198;2023-07-31T04:54:01;24.05;;;12.90;;
34505;SDS011;20748;42.632;23.198;2023-07-31T04:56:33;25.13;;;13.40;;
34505;SDS011;20748;42.632;23.198;2023-07-31T04:59:05;23.98;;;11.73;;
34505;SDS011;20748;42.632;23.198;2023-07-31T05:01:38;28.13;;;12.10;;
34505;SDS011;20748;42.632;23.198;2023-07-31T05:04:12;21.00;;;12.85;;
34505;SDS011;20748;42.632;23.198;2023-07-31T05:06:45;21.23;;;12.90;;
34505;SDS011;20748;42.632;23.198;2023-07-31T05:09:17;21.20;;;13.02;;
34505;SDS011;20748;42.632;23.198;2023-07-31T05:11:50;23.83;;;12.23;;
34505;SDS011;20748;42.632;23.198;2023-07-31T05:14:22;22.73;;;13.18;;
34505;SDS011;20748;42.632;23.198;2023-07-31T05:16:55;18.25;;;10.95;;
34505;SDS011;20748;42.632;23.198;2023-07-31T05:19:27;16.98;;;10.43;;
34505;SDS011;20748;42.632;23.198;2023-07-31T05:22:00;16.05;;;10.15;;
34505;SDS011;20748;42.632;23.198;2023-07-31T05:24:32;14.85;;;9.85;;
34505;SDS011;20748;42.632;23.198;2023-07-31T05:27:05;16.48;;;9.73;;
34505;SDS011;20748;42.632;23.198;2023-07-31T05:29:38;19.02;;;10.82;;
34505;SDS011;20748;42.632;23.198;2023-07-31T05:32:12;16.48;;;11.05;;
34505;SDS011;20748;42.632;23.198;2023-07-31T05:34:45;17.25;;;9.25;;
34505;SDS011;20748;42.632;23.198;2023-07-31T05:37:17;17.98;;;10.63;;
34505;SDS011;20748;42.632;23.198;2023-07-31T05:39:50;15.25;;;9.38;;
34505;SDS011;20748;42.632;23.198;2023-07-31T05:42:22;17.38;;;9.93;;
34505;SDS011;20748;42.632;23.198;2023-07-31T05:44:55;15.35;;;7.95;;
34505;SDS011;20748;42.632;23.198;2023-07-31T05:47:28;14.07;;;8.93;;
34505;SDS011;20748;42.632;23.198;2023-07-31T05:50:00;14.55;;;8.40;;
34505;SDS011;20748;42.632;23.198;2023-07-31T05:52:33;12.30;;;7.90;;
34505;SDS011;20748;42.632;23.198;2023-07-31T05:55:05;11.43;;;6.88;;
34505;SDS011;20748;42.632;23.198;2023-07-31T05:57:39;10.82;;;7.00;;
34505;SDS011;20748;42.632;23.198;2023-07-31T06:00:12;8.68;;;6.43;;
34505;SDS011;20748;42.632;23.198;2023-07-31T06:02:45;11.18;;;6.65;;
34505;SDS011;20748;42.632;23.198;2023-07-31T06:05:18;14.95;;;7.72;;
34505;SDS011;20748;42.632;23.198;2023-07-31T06:07:51;13.05;;;7.47;;
34505;SDS011;20748;42.632;23.198;2023-07-31T06:10:23;9.50;;;6.18;;
34505;SDS011;20748;42.632;23.198;2023-07-31T06:12:55;7.20;;;4.80;;
34505;SDS011;20748;42.632;23.198;2023-07-31T06:15:28;7.22;;;4.28;;
34505;SDS011;20748;42.632;23.198;2023-07-31T06:18:02;7.05;;;4.75;;
34505;SDS011;20748;42.632;23.198;2023-07-31T06:20:36;7.15;;;4.40;;
34505;SDS011;20748;42.632;23.198;2023-07-31T06:23:08;7.68;;;3.45;;
34505;SDS011;20748;42.632;23.198;2023-07-31T06:25:40;7.53;;;4.00;;
34505;SDS011;20748;42.632;23.198;2023-07-31T06:28:13;11.10;;;4.45;;
34505;SDS011;20748;42.632;23.198;2023-07-31T06:30:45;8.45;;;4.95;;
34505;SDS011;20748;42.632;23.198;2023-07-31T06:33:18;7.35;;;4.20;;
34505;SDS011;20748;42.632;23.198;2023-07-31T06:35:51;9.98;;;5.18;;
34505;SDS011;20748;42.632;23.198;2023-07-31T06:38:24;6.88;;;4.40;;
34505;SDS011;20748;42.632;23.198;2023-07-31T06:40:57;7.35;;;4.22;;
34505;SDS011;20748;42.632;23.198;2023-07-31T06:43:30;9.32;;;5.57;;
34505;SDS011;20748;42.632;23.198;2023-07-31T06:46:04;8.95;;;4.38;;
34505;SDS011;20748;42.632;23.198;2023-07-31T06:48:38;8.13;;;3.80;;
34505;SDS011;20748;42.632;23.198;2023-07-31T06:51:11;6.88;;;4.10;;
34505;SDS011;20748;42.632;23.198;2023-07-31T06:53:44;6.20;;;3.92;;
34505;SDS011;20748;42.632;23.198;2023-07-31T06:56:17;6.18;;;3.45;;
34505;SDS011;20748;42.632;23.198;2023-07-31T06:58:49;5.93;;;3.20;;
34505;SDS011;20748;42.632;23.198;2023-07-31T07:01:21;4.85;;;2.90;;
34505;SDS011;20748;42.632;23.198;2023-07-31T07:03:55;4.38;;;2.47;;
34505;SDS011;20748;42.632;23.198;2023-07-31T07:06:27;3.65;;;2.20;;
34505;SDS011;20748;42.632;23.198;2023-07-31T07:08:59;3.35;;;2.00;;
34505;SDS011;20748;42.632;23.198;2023-07-31T07:11:32;3.83;;;1.92;;
34505;SDS011;20748;42.632;23.198;2023-07-31T07:14:04;3.17;;;1.77;;
34505;SDS011;20748;42.632;23.198;2023-07-31T07:16:36;5.75;;;2.30;;
34505;SDS011;20748;42.632;23.198;2023-07-31T07:19:10;4.20;;;2.50;;
34505;SDS011;20748;42.632;23.198;2023-07-31T07:21:42;3.13;;;1.65;;
34505;SDS011;20748;42.632;23.198;2023-07-31T07:24:15;5.35;;;2.15;;
34505;SDS011;20748;42.632;23.198;2023-07-31T07:26:47;3.47;;;1.90;;
34505;SDS011;20748;42.632;23.198;2023-07-31T07:29:19;4.93;;;1.65;;
34505;SDS011;20748;42.632;23.198;2023-07-31T07:31:52;2.78;;;1.67;;
34505;SDS011;20748;42.632;23.198;2023-07-31T07:34:25;3.47;;;1.90;;
34505;SDS011;20748;42.632;23.198;2023-07-31T07:36:58;3.80;;;1.98;;
34505;SDS011;20748;42.632;23.198;2023-07-31T07:39:31;3.33;;;1.83;;
34505;SDS011;20748;42.632;23.198;2023-07-31T07:42:04;3.15;;;1.70;;
34505;SDS011;20748;42.632;23.198;2023-07-31T07:44:36;4.22;;;2.10;;
34505;SDS011;20748;42.632;23.198;2023-07-31T07:47:09;4.57;;;1.90;;
34505;SDS011;20748;42.632;23.198;2023-07-31T07:49:42;2.92;;;1.30;;
34505;SDS011;20748;42.632;23.198;2023-07-31T07:52:20;3.35;;;1.92;;
34505;SDS011;20748;42.632;23.198;2023-07-31T07:54:52;3.60;;;1.85;;
34505;SDS011;20748;42.632;23.198;2023-07-31T07:57:24;2.75;;;1.75;;
34505;SDS011;20748;42.632;23.198;2023-07-31T07:59:57;3.50;;;2.10;;
34505;SDS011;20748;42.632;23.198;2023-07-31T08:02:29;3.03;;;1.58;;
34505;SDS011;20748;42.632;23.198;2023-07-31T08:05:02;2.88;;;1.90;;
34505;SDS011;20748;42.632;23.198;2023-07-31T08:07:35;3.13;;;1.60;;
34505;SDS011;20748;42.632;23.198;2023-07-31T08:10:07;3.45;;;1.80;;
34505;SDS011;20748;42.632;23.198;2023-07-31T08:12:40;2.70;;;1.85;;
34505;SDS011;20748;42.632;23.198;2023-07-31T08:15:12;3.20;;;1.80;;
34505;SDS011;20748;42.632;23.198;2023-07-31T08:17:45;2.30;;;1.52;;
34505;SDS011;20748;42.632;23.198;2023-07-31T08:20:18;2.75;;;1.60;;
34505;SDS011;20748;42.632;23.198;2023-07-31T08:22:50;2.67;;;1.67;;
34505;SDS011;20748;42.632;23.198;2023-07-31T08:35:27;3.42;;;1.60;;
34505;SDS011;20748;42.632;23.198;2023-07-31T08:38:00;3.70;;;2.00;;
34505;SDS011;20748;42.632;23.198;2023-07-31T08:40:35;3.50;;;1.90;;
34505;SDS011;20748;42.632;23.198;2023-07-31T08:43:08;2.05;;;1.55;;
34505;SDS011;20748;42.632;23.198;2023-07-31T08:45:41;3.78;;;1.35;;
34505;SDS011;20748;42.632;23.198;2023-07-31T08:48:15;2.28;;;1.80;;
34505;SDS011;20748;42.632;23.198;2023-07-31T08:50:49;2.00;;;1.42;;
34505;SDS011;20748;42.632;23.198;2023-07-31T08:53:22;3.40;;;1.65;;
34505;SDS011;20748;42.632;23.198;2023-07-31T08:55:54;2.85;;;1.75;;
34505;SDS011;20748;42.632;23.198;2023-07-31T08:58:29;2.33;;;1.33;;
34505;SDS011;20748;42.632;23.198;2023-07-31T09:01:04;3.13;;;1.45;;
34505;SDS011;20748;42.632;23.198;2023-07-31T09:03:37;2.35;;;1.38;;
34505;SDS011;20748;42.632;23.198;2023-07-31T09:06:13;2.40;;;1.48;;
34505;SDS011;20748;42.632;23.198;2023-07-31T09:08:50;3.28;;;1.52;;
34505;SDS011;20748;42.632;23.198;2023-07-31T09:11:23;2.55;;;1.52;;
34505;SDS011;20748;42.632;23.198;2023-07-31T09:13:57;3.20;;;2.13;;
34505;SDS011;20748;42.632;23.198;2023-07-31T09:16:30;3.10;;;1.40;;
34505;SDS011;20748;42.632;23.198;2023-07-31T09:19:03;2.42;;;1.40;;
34505;SDS011;20748;42.632;23.198;2023-07-31T09:21:40;2.88;;;1.60;;
34505;SDS011;20748;42.632;23.198;2023-07-31T09:24:24;5.88;;;2.15;;
34505;SDS011;20748;42.632;23.198;2023-07-31T09:26:58;2.90;;;1.93;;
34505;SDS011;20748;42.632;23.198;2023-07-31T09:48:41;2.80;;;1.80;;
34505;SDS011;20748;42.632;23.198;2023-07-31T09:51:14;2.88;;;1.80;;
34505;SDS011;20748;42.632;23.198;2023-07-31T09:53:49;2.70;;;1.77;;
34505;SDS011;20748;42.632;23.198;2023-07-31T09:56:22;3.53;;;1.80;;
34505;SDS011;20748;42.632;23.198;2023-07-31T09:58:55;4.90;;;2.10;;
34505;SDS011;20748;42.632;23.198;2023-07-31T10:01:28;3.42;;;1.83;;
34505;SDS011;20748;42.632;23.198;2023-07-31T10:04:01;3.20;;;1.92;;
34505;SDS011;20748;42.632;23.198;2023-07-31T10:06:36;3.08;;;1.77;;
34505;SDS011;20748;42.632;23.198;2023-07-31T10:09:11;2.35;;;1.50;;
34505;SDS011;20748;42.632;23.198;2023-07-31T10:11:55;3.85;;;1.63;;
34505;SDS011;20748;42.632;23.198;2023-07-31T10:14:31;2.45;;;1.40;;
34505;SDS011;20748;42.632;23.198;2023-07-31T10:17:04;1.92;;;1.55;;
34505;SDS011;20748;42.632;23.198;2023-07-31T10:19:39;2.67;;;1.50;;
34505;SDS011;20748;42.632;23.198;2023-07-31T10:22:12;3.80;;;1.52;;
34505;SDS011;20748;42.632;23.198;2023-07-31T10:24:46;2.35;;;1.60;;
34505;SDS011;20748;42.632;23.198;2023-07-31T10:27:20;2.65;;;1.48;;
34505;SDS011;20748;42.632;23.198;2023-07-31T10:29:53;2.33;;;1.58;;
34505;SDS011;20748;42.632;23.198;2023-07-31T10:32:27;4.38;;;1.80;;
34505;SDS011;20748;42.632;23.198;2023-07-31T10:35:01;3.00;;;1.50;;
34505;SDS011;20748;42.632;23.198;2023-07-31T10:37:36;2.20;;;1.27;;
34505;SDS011;20748;42.632;23.198;2023-07-31T10:40:10;3.65;;;1.27;;
34505;SDS011;20748;42.632;23.198;2023-07-31T10:42:45;2.08;;;1.40;;
34505;SDS011;20748;42.632;23.198;2023-07-31T10:45:32;2.17;;;1.50;;
34505;SDS011;20748;42.632;23.198;2023-07-31T10:48:12;3.15;;;1.98;;
34505;SDS011;20748;42.632;23.198;2023-07-31T10:50:47;2.03;;;1.37;;
34505;SDS011;20748;42.632;23.198;2023-07-31T10:53:24;4.07;;;1.42;;
34505;SDS011;20748;42.632;23.198;2023-07-31T10:55:57;2.40;;;1.40;;
34505;SDS011;20748;42.632;23.198;2023-07-31T10:58:31;2.05;;;1.30;;
34505;SDS011;20748;42.632;23.198;2023-07-31T11:01:05;2.40;;;1.33;;
34505;SDS011;20748;42.632;23.198;2023-07-31T11:03:41;2.67;;;1.60;;
34505;SDS011;20748;42.632;23.198;2023-07-31T11:06:16;3.10;;;1.73;;
34505;SDS011;20748;42.632;23.198;2023-07-31T11:08:50;2.10;;;1.35;;
34505;SDS011;20748;42.632;23.198;2023-07-31T11:11:23;1.98;;;1.35;;
34505;SDS011;20748;42.632;23.198;2023-07-31T11:13:55;2.90;;;1.33;;
34505;SDS011;20748;42.632;23.198;2023-07-31T11:16:27;1.92;;;1.20;;
34505;SDS011;20748;42.632;23.198;2023-07-31T11:19:00;1.17;;;1.00;;
34505;SDS011;20748;42.632;23.198;2023-07-31T11:21:33;1.95;;;1.35;;
34505;SDS011;20748;42.632;23.198;2023-07-31T11:24:06;2.15;;;1.13;;
34505;SDS011;20748;42.632;23.198;2023-07-31T11:26:38;1.73;;;1.15;;
34505;SDS011;20748;42.632;23.198;2023-07-31T11:29:11;2.53;;;1.52;;
34505;SDS011;20748;42.632;23.198;2023-07-31T11:31:45;2.15;;;1.48;;
34505;SDS011;20748;42.632;23.198;2023-07-31T11:34:19;2.80;;;1.80;;
34505;SDS011;20748;42.632;23.198;2023-07-31T11:36:53;2.40;;;1.30;;
34505;SDS011;20748;42.632;23.198;2023-07-31T11:39:26;3.40;;;2.15;;
34505;SDS011;20748;42.632;23.198;2023-07-31T11:41:59;3.17;;;1.58;;
34505;SDS011;20748;42.632;23.198;2023-07-31T11:44:37;4.03;;;1.77;;
34505;SDS011;20748;42.632;23.198;2023-07-31T11:47:10;2.67;;;1.80;;
34505;SDS011;20748;42.632;23.198;2023-07-31T11:49:43;4.03;;;1.83;;
34505;SDS011;20748;42.632;23.198;2023-07-31T11:52:16;3.63;;;1.80;;
34505;SDS011;20748;42.632;23.198;2023-07-31T11:54:51;3.10;;;1.60;;
34505;SDS011;20748;42.632;23.198;2023-07-31T11:57:24;2.20;;;1.45;;
34505;SDS011;20748;42.632;23.198;2023-07-31T11:59:57;2.63;;;1.50;;
34505;SDS011;20748;42.632;23.198;2023-07-31T12:02:30;2.67;;;1.60;;
34505;SDS011;20748;42.632;23.198;2023-07-31T12:05:03;3.90;;;2.22;;
34505;SDS011;20748;42.632;23.198;2023-07-31T12:07:46;3.03;;;1.77;;
34505;SDS011;20748;42.632;23.198;2023-07-31T12:10:26;3.35;;;1.77;;
34505;SDS011;20748;42.632;23.198;2023-07-31T12:13:01;4.32;;;2.35;;
34505;SDS011;20748;42.632;23.198;2023-07-31T12:15:36;4.28;;;2.30;;
34505;SDS011;20748;42.632;23.198;2023-07-31T12:18:10;3.63;;;1.90;;
34505;SDS011;20748;42.632;23.198;2023-07-31T12:20:44;5.07;;;3.58;;
34505;SDS011;20748;42.632;23.198;2023-07-31T12:23:18;3.38;;;2.35;;
34505;SDS011;20748;42.632;23.198;2023-07-31T12:26:02;3.85;;;2.53;;
34505;SDS011;20748;42.632;23.198;2023-07-31T12:28:36;5.60;;;3.20;;
34505;SDS011;20748;42.632;23.198;2023-07-31T12:31:09;6.07;;;3.60;;
34505;SDS011;20748;42.632;23.198;2023-07-31T12:33:43;4.85;;;3.25;;
34505;SDS011;20748;42.632;23.198;2023-07-31T12:36:16;5.60;;;3.72;;
34505;SDS011;20748;42.632;23.198;2023-07-31T12:38:50;5.68;;;3.50;;
34505;SDS011;20748;42.632;23.198;2023-07-31T12:41:23;7.50;;;3.67;;
34505;SDS011;20748;42.632;23.198;2023-07-31T12:43:56;5.53;;;3.35;;
34505;SDS011;20748;42.632;23.198;2023-07-31T12:46:28;5.18;;;3.72;;
34505;SDS011;20748;42.632;23.198;2023-07-31T12:49:01;5.15;;;3.42;;
34505;SDS011;20748;42.632;23.198;2023-07-31T12:51:34;6.18;;;4.10;;
34505;SDS011;20748;42.632;23.198;2023-07-31T12:54:07;5.43;;;3.47;;
34505;SDS011;20748;42.632;23.198;2023-07-31T12:56:39;4.75;;;3.58;;
34505;SDS011;20748;42.632;23.198;2023-07-31T12:59:13;6.05;;;4.05;;
34505;SDS011;20748;42.632;23.198;2023-07-31T13:01:45;6.32;;;4.03;;
34505;SDS011;20748;42.632;23.198;2023-07-31T13:04:18;6.38;;;4.38;;
34505;SDS011;20748;42.632;23.198;2023-07-31T13:06:50;5.75;;;4.15;;
34505;SDS011;20748;42.632;23.198;2023-07-31T13:09:23;7.03;;;4.38;;
34505;SDS011;20748;42.632;23.198;2023-07-31T13:11:56;7.32;;;5.25;;
34505;SDS011;20748;42.632;23.198;2023-07-31T13:14:28;5.70;;;4.32;;
34505;SDS011;20748;42.632;23.198;2023-07-31T13:17:00;4.93;;;3.75;;
34505;SDS011;20748;42.632;23.198;2023-07-31T13:19:33;5.43;;;4.00;;
34505;SDS011;20748;42.632;23.198;2023-07-31T13:22:05;5.07;;;4.40;;
34505;SDS011;20748;42.632;23.198;2023-07-31T13:24:38;6.22;;;4.43;;
34505;SDS011;20748;42.632;23.198;2023-07-31T13:27:11;5.50;;;3.95;;
34505;SDS011;20748;42.632;23.198;2023-07-31T13:29:43;4.75;;;3.85;;
34505;SDS011;20748;42.632;23.198;2023-07-31T13:32:15;5.53;;;3.88;;
34505;SDS011;20748;42.632;23.198;2023-07-31T13:34:48;6.22;;;4.30;;
34505;SDS011;20748;42.632;23.198;2023-07-31T13:37:21;6.47;;;3.40;;
34505;SDS011;20748;42.632;23.198;2023-07-31T13:39:54;6.63;;;4.32;;
34505;SDS011;20748;42.632;23.198;2023-07-31T13:42:26;5.82;;;4.15;;
34505;SDS011;20748;42.632;23.198;2023-07-31T13:45:00;6.45;;;4.35;;
34505;SDS011;20748;42.632;23.198;2023-07-31T13:47:35;5.50;;;3.88;;
34505;SDS011;20748;42.632;23.198;2023-07-31T13:50:08;5.50;;;3.60;;
34505;SDS011;20748;42.632;23.198;2023-07-31T13:52:41;4.85;;;3.20;;
34505;SDS011;20748;42.632;23.198;2023-07-31T13:55:14;5.78;;;3.67;;
34505;SDS011;20748;42.632;23.198;2023-07-31T13:57:47;3.85;;;2.80;;
34505;SDS011;20748;42.632;23.198;2023-07-31T14:00:20;3.95;;;2.83;;
34505;SDS011;20748;42.632;23.198;2023-07-31T14:02:52;4.82;;;3.00;;
34505;SDS011;20748;42.632;23.198;2023-07-31T14:05:24;4.97;;;3.40;;
34505;SDS011;20748;42.632;23.198;2023-07-31T14:07:57;4.97;;;3.17;;
34505;SDS011;20748;42.632;23.198;2023-07-31T14:10:30;4.15;;;2.83;;
34505;SDS011;20748;42.632;23.198;2023-07-31T14:13:02;5.05;;;3.10;;
34505;SDS011;20748;42.632;23.198;2023-07-31T14:15:34;3.75;;;2.70;;
34505;SDS011;20748;42.632;23.198;2023-07-31T14:18:07;5.90;;;3.60;;
34505;SDS011;20748;42.632;23.198;2023-07-31T14:20:40;3.80;;;2.47;;
34505;SDS011;20748;42.632;23.198;2023-07-31T14:23:12;5.80;;;3.10;;
34505;SDS011;20748;42.632;23.198;2023-07-31T14:25:45;4.55;;;3.05;;
34505;SDS011;20748;42.632;23.198;2023-07-31T14:28:18;4.03;;;2.45;;
34505;SDS011;20748;42.632;23.198;2023-07-31T14:30:50;5.43;;;3.22;;
34505;SDS011;20748;42.632;23.198;2023-07-31T14:33:23;4.18;;;2.65;;
34505;SDS011;20748;42.632;23.198;2023-07-31T14:35:55;4.32;;;3.38;;
34505;SDS011;20748;42.632;23.198;2023-07-31T14:38:27;5.18;;;3.25;;
34505;SDS011;20748;42.632;23.198;2023-07-31T14:41:00;5.47;;;2.80;;
34505;SDS011;20748;42.632;23.198;2023-07-31T14:43:33;4.50;;;2.78;;
34505;SDS011;20748;42.632;23.198;2023-07-31T14:46:05;3.35;;;2.50;;
34505;SDS011;20748;42.632;23.198;2023-07-31T14:48:38;4.13;;;2.63;;
34505;SDS011;20748;42.632;23.198;2023-07-31T14:51:10;4.45;;;3.08;;
34505;SDS011;20748;42.632;23.198;2023-07-31T14:53:42;4.72;;;2.90;;
34505;SDS011;20748;42.632;23.198;2023-07-31T14:56:16;4.28;;;2.65;;
34505;SDS011;20748;42.632;23.198;2023-07-31T14:58:48;4.18;;;2.83;;
34505;SDS011;20748;42.632;23.198;2023-07-31T15:01:20;4.43;;;3.00;;
34505;SDS011;20748;42.632;23.198;2023-07-31T15:03:53;5.15;;;2.72;;
34505;SDS011;20748;42.632;23.198;2023-07-31T15:06:25;3.70;;;2.53;;
34505;SDS011;20748;42.632;23.198;2023-07-31T15:08:58;15.13;;;9.05;;
34505;SDS011;20748;42.632;23.198;2023-07-31T15:11:31;5.93;;;3.42;;
34505;SDS011;20748;42.632;23.198;2023-07-31T15:14:03;3.25;;;2.47;;
34505;SDS011;20748;42.632;23.198;2023-07-31T15:16:35;4.20;;;2.50;;
34505;SDS011;20748;42.632;23.198;2023-07-31T15:19:08;4.18;;;2.72;;
34505;SDS011;20748;42.632;23.198;2023-07-31T15:21:41;3.47;;;2.20;;
34505;SDS011;20748;42.632;23.198;2023-07-31T15:24:14;3.90;;;2.45;;
34505;SDS011;20748;42.632;23.198;2023-07-31T15:26:47;4.05;;;2.50;;
34505;SDS011;20748;42.632;23.198;2023-07-31T15:29:19;4.43;;;2.15;;
34505;SDS011;20748;42.632;23.198;2023-07-31T15:31:52;2.78;;;2.15;;
34505;SDS011;20748;42.632;23.198;2023-07-31T15:34:24;2.63;;;1.85;;